Terminal Aerodrome Forecast
Issued by NWS

Home | Current Version | Previous Version | Text Only | Print | Product List | Glossary On
Versions: 1 2 3 4 5 6 7 8 9 10 11 12 13 14 15 16 17 18 19 20 21 22
000
FTUS43 KDDC 212342 CCA
TAFGCK
TAF COR
KGCK 212342Z 2200/2224 19015G25KT P6SM OVC150
      TEMPO 2200/2202 VRB45G55KT 3SM -TSRA BKN040CB
     FM220200 17015G25KT P6SM BKN050
     FM220500 21012KT P6SM BKN150
     FM220600 22010KT P6SM SCT150=

USA.gov is the U.S. government's official web portal to all federal, state and local government web resources and services.